Kupino, Russia
Current Conditions -  °F | °C
As of 11:00 AM on Wednesday 28 Jan 2015 (Local Time) from UASP Reporting Station
Clear Clear  
Wind Chill: -17°   Ceiling: Unl
Heat Index:   Visibility: 6mi
Dew Point: -9°   Wind: 11mph
Humidity: 66%   Direction: 240°WSW
Pressure: 30.56"   Gusts: NA
Location:  54.36°N, 77.28°E
Report Text: UASP 280400Z 24005MPS CAVOK M18/M23 Q1035 R21/0///60 NOSIG RMKQFE765/1020
Loading
Personal Weather Stations






























Interactive Weather Map New forecast layout! Learn more

10-Day Weather Forecast

Advertisements
Track Severe Weather on mobile